Time;durP1;ratioP1;P1;durP2;ratioP2;P2;SDS_P1;SDS_P2;PMS_P1;PMS_P2;Temp;Humidity;BMP_temperature;BMP_pressure;BME280_temperature;BME280_humidity;BME280_pressure;Samples;Min_cycle;Max_cycle;Signal;HPM_P1;HPM_P2
2023/10/11 00:01:15;;;;;;;;;;;19.00;57.30;;;;;;217375;1295;22538;-60
2023/10/11 00:06:18;;;;;;;;;;;19.00;57.10;;;;;;217487;1297;22492;-61
2023/10/11 00:11:27;;;;;;;;;;;19.00;57.00;;;;;;217583;1298;22783;-61
2023/10/11 00:16:35;;;;;;;;;;;19.00;57.80;;;;;;217128;1298;22643;-61
2023/10/11 00:21:41;;;;;;;;;;;18.90;57.20;;;;;;217430;1295;22614;-61
2023/10/11 00:26:46;;;;;;;;;;;19.00;57.30;;;;;;217384;1294;24254;-63
2023/10/11 00:31:51;;;;;;;;;;;19.00;57.30;;;;;;217235;1285;26105;-64
2023/10/11 00:36:54;;;;;;;;;;;18.90;57.30;;;;;;217519;1298;22543;-64
2023/10/11 00:41:57;;;;;;;;;;;19.00;57.40;;;;;;217492;1294;22615;-65
2023/10/11 00:47:01;;;;;;;;;;;19.00;57.30;;;;;;217642;1298;23184;-64
2023/10/11 00:52:06;;;;;;;;;;;18.90;57.30;;;;;;217449;1298;24412;-63
2023/10/11 00:57:11;;;;;;;;;;;18.90;57.40;;;;;;217410;1291;26370;-62
2023/10/11 01:02:14;;;;;;;;;;;18.90;57.30;;;;;;217409;1298;24932;-63
2023/10/11 01:07:17;;;;;;;;;;;18.90;57.20;;;;;;217349;1298;22554;-64
2023/10/11 01:12:22;;;;;;;;;;;18.90;57.40;;;;;;217559;1295;22538;-63
2023/10/11 01:17:31;;;;;;;;;;;18.90;57.70;;;;;;217353;1298;22567;-65
2023/10/11 01:22:35;;;;;;;;;;;18.90;57.40;;;;;;217288;1297;25517;-65
2023/10/11 01:27:37;;;;;;;;;;;18.90;57.40;;;;;;217532;1294;22588;-65
2023/10/11 01:32:44;;;;;;;;;;;18.90;56.90;;;;;;217214;1291;22534;-62
2023/10/11 01:37:48;;;;;;;;;;;18.90;57.30;;;;;;217356;1298;22656;-64
2023/10/11 01:42:51;;;;;;;;;;;18.90;57.40;;;;;;217473;1285;24279;-64
2023/10/11 01:47:57;;;;;;;;;;;18.90;57.40;;;;;;217460;1292;22531;-63
2023/10/11 01:53:00;;;;;;;;;;;19.00;57.30;;;;;;217333;1296;22527;-64
2023/10/11 01:58:06;;;;;;;;;;;18.90;57.70;;;;;;217290;1298;23453;-64
2023/10/11 02:03:13;;;;;;;;;;;18.90;57.40;;;;;;217294;1285;23814;-63
2023/10/11 02:08:17;;;;;;;;;;;18.90;57.40;;;;;;217225;1298;24251;-63
2023/10/11 02:13:20;;;;;;;;;;;18.90;57.40;;;;;;217387;1285;22538;-63
2023/10/11 02:18:25;;;;;;;;;;;18.90;57.40;;;;;;217350;1298;24110;-64
2023/10/11 02:23:30;;;;;;;;;;;18.90;57.50;;;;;;217529;1298;23064;-64
2023/10/11 02:28:32;;;;;;;;;;;18.90;57.40;;;;;;217177;1298;23904;-64
2023/10/11 02:33:35;;;;;;;;;;;18.90;57.50;;;;;;217494;1293;22803;-63
2023/10/11 02:38:47;;;;;;;;;;;18.90;57.50;;;;;;217253;1298;22548;-64
2023/10/11 02:43:51;;;;;;;;;;;18.90;57.50;;;;;;217404;1285;23971;-63
2023/10/11 02:49:39;;;;;;;;;;;18.90;57.60;;;;;;217267;1298;22567;-63
2023/10/11 02:54:16;;;;;;;;;;;18.90;57.50;;;;;;217390;1298;22551;-64
2023/10/11 02:59:22;;;;;;;;;;;18.90;57.50;;;;;;217493;1298;22569;-64
2023/10/11 03:04:29;;;;;;;;;;;18.90;57.50;;;;;;217420;1286;22610;-64
2023/10/11 03:09:33;;;;;;;;;;;18.90;57.50;;;;;;217285;1298;25562;-62
2023/10/11 03:14:42;;;;;;;;;;;18.90;57.50;;;;;;217209;1292;22549;-63
2023/10/11 03:19:45;;;;;;;;;;;18.90;57.50;;;;;;217391;1282;24280;-63
2023/10/11 03:24:59;;;;;;;;;;;18.80;57.50;;;;;;217370;1297;24098;-64
2023/10/11 03:30:02;;;;;;;;;;;18.80;57.50;;;;;;217400;1292;22536;-64
2023/10/11 03:35:06;;;;;;;;;;;18.90;57.50;;;;;;217334;1291;24322;-64
2023/10/11 03:40:27;;;;;;;;;;;18.90;57.50;;;;;;217385;1295;23001;-64
2023/10/11 03:45:34;;;;;;;;;;;18.90;57.50;;;;;;217393;1298;23946;-63
2023/10/11 03:50:47;;;;;;;;;;;18.90;57.50;;;;;;217397;1291;22594;-64
2023/10/11 03:55:50;;;;;;;;;;;18.80;57.50;;;;;;217351;1297;24302;-63
2023/10/11 04:00:52;;;;;;;;;;;18.90;57.50;;;;;;217336;1289;22536;-63
2023/10/11 04:06:13;;;;;;;;;;;18.80;57.50;;;;;;217238;1292;22615;-63
2023/10/11 04:11:22;;;;;;;;;;;18.90;57.60;;;;;;217061;1298;22838;-64
2023/10/11 04:16:28;;;;;;;;;;;18.80;57.50;;;;;;217218;1291;22629;-64
2023/10/11 04:21:53;;;;;;;;;;;18.80;57.50;;;;;;217280;1299;24083;-65
2023/10/11 04:37:52;;;;;;;;;;;18.90;57.60;;;;;;217464;1298;22510;-61
2023/10/11 04:48:29;;;;;;;;;;;18.80;57.50;;;;;;217564;1298;22590;-62
2023/10/11 04:54:15;;;;;;;;;;;18.80;57.50;;;;;;217334;1298;22530;-59
2023/10/11 04:59:05;;;;;;;;;;;18.80;57.50;;;;;;217473;1298;22591;-60
2023/10/11 05:04:12;;;;;;;;;;;18.80;57.50;;;;;;217486;1298;22538;-60
2023/10/11 05:14:36;;;;;;;;;;;18.80;57.40;;;;;;217522;1298;22536;-61
2023/10/11 05:19:44;;;;;;;;;;;18.80;57.50;;;;;;217254;1293;22612;-62
2023/10/11 05:30:09;;;;;;;;;;;18.80;57.50;;;;;;217241;1298;22968;-61
2023/10/11 05:35:43;;;;;;;;;;;18.80;57.60;;;;;;217445;1295;22714;-60
2023/10/11 05:51:29;;;;;;;;;;;18.80;57.60;;;;;;217198;1298;22538;-61
2023/10/11 05:56:38;;;;;;;;;;;18.80;57.70;;;;;;217444;1298;23158;-61
2023/10/11 06:01:44;;;;;;;;;;;18.70;57.70;;;;;;217330;1298;23011;-61
2023/10/11 06:06:47;;;;;;;;;;;18.80;57.80;;;;;;217248;1298;22559;-62
2023/10/11 06:11:50;;;;;;;;;;;18.80;57.80;;;;;;217255;1298;23406;-60
2023/10/11 06:16:57;;;;;;;;;;;18.80;57.60;;;;;;217287;1292;22538;-61
2023/10/11 06:22:09;;;;;;;;;;;18.80;57.70;;;;;;217361;1286;22536;-61
2023/10/11 06:32:19;;;;;;;;;;;18.90;57.40;;;;;;217664;1295;22615;-60
2023/10/11 06:37:26;;;;;;;;;;;18.80;58.00;;;;;;217269;1292;22670;-61
2023/10/11 06:42:31;;;;;;;;;;;18.90;57.60;;;;;;217131;1298;24390;-61
2023/10/11 06:47:35;;;;;;;;;;;18.90;57.60;;;;;;217605;1297;22659;-60
2023/10/11 06:52:43;;;;;;;;;;;19.00;57.80;;;;;;217327;1298;25104;-61
2023/10/11 06:57:50;;;;;;;;;;;19.00;57.40;;;;;;217495;1298;22673;-62
2023/10/11 07:03:06;;;;;;;;;;;19.00;57.40;;;;;;217512;1294;24221;-61
2023/10/11 07:08:10;;;;;;;;;;;19.10;57.40;;;;;;217483;1298;23629;-62
2023/10/11 07:13:13;;;;;;;;;;;19.20;57.30;;;;;;217485;1283;22675;-61
2023/10/11 07:18:22;;;;;;;;;;;19.10;57.30;;;;;;217429;1299;24245;-61
2023/10/11 07:23:35;;;;;;;;;;;19.20;57.40;;;;;;217644;1298;24235;-60
2023/10/11 07:28:38;;;;;;;;;;;19.20;57.30;;;;;;217473;1283;22684;-61
2023/10/11 07:33:40;;;;;;;;;;;19.20;57.30;;;;;;217470;1295;25316;-61
2023/10/11 07:38:45;;;;;;;;;;;19.20;57.50;;;;;;217325;1298;22648;-61
2023/10/11 07:43:48;;;;;;;;;;;19.20;57.40;;;;;;217631;1298;22583;-64
2023/10/11 07:49:01;;;;;;;;;;;19.30;57.80;;;;;;217146;1291;22556;-62
2023/10/11 07:54:06;;;;;;;;;;;19.30;57.70;;;;;;217368;1296;22543;-62
2023/10/11 07:59:09;;;;;;;;;;;19.30;57.30;;;;;;217664;1298;23052;-64
2023/10/11 08:04:17;;;;;;;;;;;19.30;57.90;;;;;;217363;1292;25326;-64
2023/10/11 08:09:21;;;;;;;;;;;19.30;57.40;;;;;;217394;1299;25278;-63
2023/10/11 08:14:30;;;;;;;;;;;19.40;57.10;;;;;;217482;1283;23949;-64
2023/10/11 08:19:34;;;;;;;;;;;19.40;57.20;;;;;;217136;1298;22547;-64
2023/10/11 08:24:46;;;;;;;;;;;19.40;57.10;;;;;;217265;1294;22530;-62
2023/10/11 08:30:05;;;;;;;;;;;19.40;57.10;;;;;;217682;1291;22680;-62
2023/10/11 08:35:26;;;;;;;;;;;19.50;57.10;;;;;;217547;1298;22549;-65
2023/10/11 08:40:36;;;;;;;;;;;19.60;56.80;;;;;;217621;1286;22666;-64
2023/10/11 08:45:48;;;;;;;;;;;19.70;56.60;;;;;;217436;1298;22675;-62
2023/10/11 08:50:55;;;;;;;;;;;19.50;57.30;;;;;;217748;1298;24279;-63
2023/10/11 08:55:58;;;;;;;;;;;19.50;56.90;;;;;;217468;1294;22529;-62
2023/10/11 09:01:01;;;;;;;;;;;19.50;56.90;;;;;;217492;1298;23125;-64
2023/10/11 09:06:05;;;;;;;;;;;19.50;57.00;;;;;;217376;1295;22563;-63
2023/10/11 09:11:12;;;;;;;;;;;19.40;57.00;;;;;;217466;1295;22537;-60
2023/10/11 09:16:34;;;;;;;;;;;19.50;57.00;;;;;;217661;1297;25379;-62
2023/10/11 09:21:37;;;;;;;;;;;19.50;57.40;;;;;;217667;1298;22546;-62
2023/10/11 09:26:40;;;;;;;;;;;19.50;57.10;;;;;;217420;1283;22710;-63
2023/10/11 09:32:04;;;;;;;;;;;19.60;57.10;;;;;;217569;1292;22536;-60
2023/10/11 09:37:11;;;;;;;;;;;19.60;57.10;;;;;;217406;1283;25706;-62
2023/10/11 09:42:15;;;;;;;;;;;19.70;56.90;;;;;;217409;1292;22676;-60
2023/10/11 09:47:19;;;;;;;;;;;19.80;57.20;;;;;;217601;1297;22527;-63
2023/10/11 09:52:23;;;;;;;;;;;19.80;56.90;;;;;;217557;1291;25304;-61
2023/10/11 09:57:41;;;;;;;;;;;19.70;56.90;;;;;;217587;1298;22681;-60
2023/10/11 10:02:50;;;;;;;;;;;19.70;57.20;;;;;;217390;1291;24474;-61
2023/10/11 10:07:52;;;;;;;;;;;19.80;57.00;;;;;;217463;1294;22566;-61
2023/10/11 10:12:59;;;;;;;;;;;19.80;57.00;;;;;;217358;1297;22551;-62
2023/10/11 10:18:12;;;;;;;;;;;19.80;57.70;;;;;;217545;1297;22547;-62
2023/10/11 10:23:16;;;;;;;;;;;19.80;57.00;;;;;;217605;1289;22566;-62
2023/10/11 10:28:39;;;;;;;;;;;19.80;57.00;;;;;;217322;1298;22666;-64
2023/10/11 10:33:55;;;;;;;;;;;19.80;57.00;;;;;;217595;1291;22539;-62
2023/10/11 10:38:58;;;;;;;;;;;19.90;57.00;;;;;;217339;1298;22543;-63
2023/10/11 10:44:08;;;;;;;;;;;19.90;56.90;;;;;;217425;1298;22547;-63
2023/10/11 10:49:11;;;;;;;;;;;19.90;57.10;;;;;;217699;1295;22531;-64
2023/10/11 10:54:14;;;;;;;;;;;19.90;56.90;;;;;;217283;1297;22551;-61
2023/10/11 10:59:20;;;;;;;;;;;19.90;57.00;;;;;;217569;1292;24264;-62
2023/10/11 11:04:28;;;;;;;;;;;19.90;57.10;;;;;;217461;1294;22546;-62
2023/10/11 11:09:32;;;;;;;;;;;19.90;57.10;;;;;;217324;1298;25266;-62
2023/10/11 11:14:35;;;;;;;;;;;20.00;56.90;;;;;;217715;1298;22550;-63
2023/10/11 11:19:38;;;;;;;;;;;20.10;56.80;;;;;;217337;1291;22679;-64
2023/10/11 11:24:42;;;;;;;;;;;20.20;56.60;;;;;;217502;1298;22540;-64
2023/10/11 11:29:48;;;;;;;;;;;20.20;56.60;;;;;;217568;1298;25354;-60
2023/10/11 11:35:02;;;;;;;;;;;20.20;56.60;;;;;;217410;1294;22675;-61
2023/10/11 11:40:24;;;;;;;;;;;20.30;56.60;;;;;;217438;1291;25354;-61
2023/10/11 11:45:29;;;;;;;;;;;20.30;56.60;;;;;;217507;1298;22479;-62
2023/10/11 11:50:37;;;;;;;;;;;20.30;56.60;;;;;;217366;1298;22684;-61
2023/10/11 11:55:41;;;;;;;;;;;20.30;56.50;;;;;;217178;1295;22537;-60
2023/10/11 12:00:59;;;;;;;;;;;20.40;56.80;;;;;;217512;1294;22700;-61
2023/10/11 12:06:20;;;;;;;;;;;20.40;56.50;;;;;;217321;1285;22595;-62
2023/10/11 12:11:31;;;;;;;;;;;20.50;56.80;;;;;;217645;1297;22540;-60
2023/10/11 12:16:33;;;;;;;;;;;20.50;56.40;;;;;;217228;1299;25357;-61
2023/10/11 12:21:36;;;;;;;;;;;20.50;56.40;;;;;;217405;1283;23938;-61
2023/10/11 12:26:42;;;;;;;;;;;20.60;56.30;;;;;;217527;1298;23513;-63
2023/10/11 12:31:45;;;;;;;;;;;20.60;56.30;;;;;;217336;1294;22557;-60
2023/10/11 12:36:51;;;;;;;;;;;20.60;56.70;;;;;;217512;1297;22618;-59
2023/10/11 12:41:56;;;;;;;;;;;20.60;56.40;;;;;;217626;1295;24238;-60
2023/10/11 12:46:58;;;;;;;;;;;20.60;56.30;;;;;;217581;1285;24257;-61
2023/10/11 12:52:05;;;;;;;;;;;20.70;56.30;;;;;;217719;1298;22534;-61
2023/10/11 12:57:08;;;;;;;;;;;20.70;56.20;;;;;;217368;1291;22630;-60
2023/10/11 13:02:20;;;;;;;;;;;20.70;56.20;;;;;;217450;1295;22843;-61
2023/10/11 13:07:26;;;;;;;;;;;20.80;56.20;;;;;;217317;1298;22581;-59
2023/10/11 13:12:34;;;;;;;;;;;20.80;56.20;;;;;;217559;1285;22604;-62
2023/10/11 13:17:40;;;;;;;;;;;20.80;56.10;;;;;;217308;1298;22648;-60
2023/10/11 13:22:44;;;;;;;;;;;20.80;56.40;;;;;;217438;1295;24258;-60
2023/10/11 13:27:47;;;;;;;;;;;20.80;56.00;;;;;;217469;1297;23948;-60
2023/10/11 13:32:50;;;;;;;;;;;20.80;56.00;;;;;;217484;1295;22681;-61
2023/10/11 13:37:55;;;;;;;;;;;20.80;56.40;;;;;;217243;1293;22544;-61
2023/10/11 13:42:58;;;;;;;;;;;20.80;56.20;;;;;;217575;1294;22530;-60
2023/10/11 13:48:04;;;;;;;;;;;20.80;56.20;;;;;;217272;1294;24237;-63
2023/10/11 13:53:13;;;;;;;;;;;20.70;56.30;;;;;;217318;1294;22756;-64
2023/10/11 13:58:15;;;;;;;;;;;20.70;56.30;;;;;;217436;1298;22547;-65
2023/10/11 14:08:43;;;;;;;;;;;20.70;56.50;;;;;;217377;1298;22654;-63
2023/10/11 14:13:49;;;;;;;;;;;20.70;56.50;;;;;;217220;1291;24270;-64
2023/10/11 14:18:52;;;;;;;;;;;20.70;56.50;;;;;;217518;1295;22533;-64
2023/10/11 14:23:58;;;;;;;;;;;20.70;56.50;;;;;;217468;1291;22548;-63
2023/10/11 14:29:06;;;;;;;;;;;20.70;56.60;;;;;;217196;1298;24270;-63
2023/10/11 14:34:10;;;;;;;;;;;20.60;56.60;;;;;;217140;1298;22654;-65
2023/10/11 14:39:18;;;;;;;;;;;20.70;56.50;;;;;;217510;1298;23086;-64
2023/10/11 14:44:22;;;;;;;;;;;20.70;56.90;;;;;;217447;1298;23268;-64
2023/10/11 14:49:27;;;;;;;;;;;20.60;56.60;;;;;;217420;1294;22527;-63
2023/10/11 14:54:30;;;;;;;;;;;20.60;56.60;;;;;;217323;1291;22577;-64
2023/10/11 14:59:34;;;;;;;;;;;20.60;56.70;;;;;;217500;1288;23915;-64
2023/10/11 15:04:37;;;;;;;;;;;20.60;56.70;;;;;;217496;1298;259474;-66
2023/10/11 15:09:40;;;;;;;;;;;20.60;56.80;;;;;;217440;1294;22564;-64
2023/10/11 15:14:43;;;;;;;;;;;20.50;57.20;;;;;;217298;1296;22657;-64
2023/10/11 15:19:45;;;;;;;;;;;20.60;56.90;;;;;;217449;1298;22655;-64
2023/10/11 15:24:48;;;;;;;;;;;20.60;56.90;;;;;;217293;1298;22484;-64
2023/10/11 15:29:51;;;;;;;;;;;20.50;56.90;;;;;;217447;1298;22531;-65
2023/10/11 15:34:54;;;;;;;;;;;20.50;56.90;;;;;;217607;1287;23951;-64
2023/10/11 15:39:57;;;;;;;;;;;20.60;57.00;;;;;;217479;1298;22540;-63
2023/10/11 15:45:00;;;;;;;;;;;20.50;56.90;;;;;;217350;1297;23084;-64
2023/10/11 15:50:04;;;;;;;;;;;20.50;57.00;;;;;;217371;1285;22540;-65
2023/10/11 15:55:07;;;;;;;;;;;20.50;57.30;;;;;;217614;1298;25335;-63
2023/10/11 16:00:13;;;;;;;;;;;20.50;57.10;;;;;;217615;1294;22611;-64
2023/10/11 16:05:16;;;;;;;;;;;20.50;57.10;;;;;;217350;1291;22527;-63
2023/10/11 16:10:19;;;;;;;;;;;20.40;57.10;;;;;;217447;1285;22540;-65
2023/10/11 16:15:22;;;;;;;;;;;20.40;57.10;;;;;;217225;1288;22675;-64
2023/10/11 16:20:25;;;;;;;;;;;20.40;57.20;;;;;;217449;1295;24010;-65
2023/10/11 16:25:31;;;;;;;;;;;20.40;57.30;;;;;;217434;1298;22540;-64
2023/10/11 16:30:34;;;;;;;;;;;20.40;57.60;;;;;;217510;1298;22544;-63
2023/10/11 16:35:37;;;;;;;;;;;20.30;57.30;;;;;;217351;1298;24253;-62
2023/10/11 16:40:40;;;;;;;;;;;20.30;57.30;;;;;;217564;1294;25303;-65
2023/10/11 16:45:43;;;;;;;;;;;20.30;57.50;;;;;;217272;1298;22679;-64
2023/10/11 16:50:46;;;;;;;;;;;20.30;57.40;;;;;;217373;1298;22722;-63
2023/10/11 16:55:51;;;;;;;;;;;20.30;57.40;;;;;;217422;1298;22554;-63
2023/10/11 17:00:54;;;;;;;;;;;20.30;57.30;;;;;;217347;1295;24438;-63
2023/10/11 17:05:59;;;;;;;;;;;20.30;57.40;;;;;;217489;1285;25565;-65
2023/10/11 17:11:09;;;;;;;;;;;20.30;57.40;;;;;;217424;1294;22533;-64
2023/10/11 17:16:13;;;;;;;;;;;20.30;57.40;;;;;;217326;1285;22514;-64
2023/10/11 17:21:18;;;;;;;;;;;20.30;57.40;;;;;;217494;1298;22653;-64
2023/10/11 17:26:21;;;;;;;;;;;20.30;57.80;;;;;;217376;1294;22770;-63
2023/10/11 17:31:25;;;;;;;;;;;20.30;57.40;;;;;;217491;1288;24397;-64
2023/10/11 17:36:31;;;;;;;;;;;20.30;57.50;;;;;;217325;1292;23175;-65
2023/10/11 17:41:38;;;;;;;;;;;20.30;57.50;;;;;;217310;1291;22635;-64
2023/10/11 17:46:42;;;;;;;;;;;20.30;57.90;;;;;;217571;1295;24391;-65
2023/10/11 17:51:48;;;;;;;;;;;20.30;57.50;;;;;;217644;1285;22668;-63
2023/10/11 17:56:53;;;;;;;;;;;20.30;57.60;;;;;;217297;1292;22517;-65
2023/10/11 18:02:00;;;;;;;;;;;20.20;57.70;;;;;;217646;1291;22545;-64
2023/10/11 18:07:04;;;;;;;;;;;20.20;57.30;;;;;;217449;1298;22566;-64
2023/10/11 18:12:09;;;;;;;;;;;20.20;57.90;;;;;;217356;1299;22536;-63
2023/10/11 18:17:21;;;;;;;;;;;20.30;57.60;;;;;;217207;1295;22550;-64
2023/10/11 18:22:29;;;;;;;;;;;20.30;57.60;;;;;;217334;1298;22684;-65
2023/10/11 18:27:35;;;;;;;;;;;20.30;57.60;;;;;;217518;1291;22549;-66
2023/10/11 18:32:40;;;;;;;;;;;20.30;57.90;;;;;;217683;1297;25298;-61
2023/10/11 18:37:49;;;;;;;;;;;20.30;57.40;;;;;;217451;1291;23616;-60
2023/10/11 18:43:10;;;;;;;;;;;20.30;57.30;;;;;;217479;1295;22595;-59
2023/10/11 18:48:18;;;;;;;;;;;20.30;57.40;;;;;;217536;1297;24291;-61
2023/10/11 18:53:27;;;;;;;;;;;20.30;57.40;;;;;;217515;1298;22539;-59
2023/10/11 18:58:33;;;;;;;;;;;20.30;57.40;;;;;;217507;1291;22653;-61
2023/10/11 19:03:38;;;;;;;;;;;20.30;57.40;;;;;;217454;1297;22803;-60
2023/10/11 19:08:46;;;;;;;;;;;20.30;57.40;;;;;;217295;1298;24819;-59
2023/10/11 19:13:54;;;;;;;;;;;20.30;57.40;;;;;;217204;1298;22557;-59
2023/10/11 19:19:00;;;;;;;;;;;20.30;57.40;;;;;;217184;1300;23900;-60
2023/10/11 19:24:13;;;;;;;;;;;20.30;57.60;;;;;;217032;1294;22656;-59
2023/10/11 19:29:17;;;;;;;;;;;20.20;57.80;;;;;;217202;1284;22680;-60
2023/10/11 19:34:22;;;;;;;;;;;20.30;57.60;;;;;;217014;1298;23558;-61
2023/10/11 19:39:26;;;;;;;;;;;20.30;57.60;;;;;;217075;1288;22536;-59
2023/10/11 19:44:31;;;;;;;;;;;20.20;57.60;;;;;;216924;1300;24254;-65
2023/10/11 19:49:34;;;;;;;;;;;20.30;57.70;;;;;;217099;1297;25439;-64
2023/10/11 19:54:38;;;;;;;;;;;20.30;57.70;;;;;;217338;1297;25311;-64
2023/10/11 19:59:44;;;;;;;;;;;20.30;57.80;;;;;;217680;1292;25506;-64
2023/10/11 20:04:48;;;;;;;;;;;20.30;57.70;;;;;;217302;1285;24398;-65
2023/10/11 20:09:56;;;;;;;;;;;20.30;57.70;;;;;;217528;1294;23985;-64
2023/10/11 20:14:59;;;;;;;;;;;20.30;57.70;;;;;;217344;1291;24256;-65
2023/10/11 20:20:11;;;;;;;;;;;20.30;57.80;;;;;;217253;1298;22514;-64
2023/10/11 20:25:14;;;;;;;;;;;20.30;57.80;;;;;;217384;1291;22970;-64
2023/10/11 20:30:26;;;;;;;;;;;20.30;57.80;;;;;;217196;1297;23902;-64
2023/10/11 20:35:29;;;;;;;;;;;20.30;57.70;;;;;;217423;1295;22539;-64
2023/10/11 20:40:33;;;;;;;;;;;20.30;58.20;;;;;;217263;1298;22531;-63
2023/10/11 20:45:41;;;;;;;;;;;20.30;58.10;;;;;;217290;1285;23911;-65
2023/10/11 20:50:44;;;;;;;;;;;20.30;57.70;;;;;;217469;1295;24253;-61
2023/10/11 20:55:48;;;;;;;;;;;20.30;57.70;;;;;;217308;1298;22984;-61
2023/10/11 21:00:51;;;;;;;;;;;20.30;57.80;;;;;;217425;1295;23974;-61
2023/10/11 21:05:56;;;;;;;;;;;20.30;57.80;;;;;;217329;1295;25261;-60
2023/10/11 21:11:01;;;;;;;;;;;20.30;57.80;;;;;;217241;1298;22960;-62
2023/10/11 21:16:04;;;;;;;;;;;20.20;57.90;;;;;;217433;1295;22773;-59
2023/10/11 21:21:16;;;;;;;;;;;20.30;58.10;;;;;;217421;1298;22531;-62
2023/10/11 21:26:21;;;;;;;;;;;20.30;58.00;;;;;;217263;1296;22566;-60
2023/10/11 21:31:24;;;;;;;;;;;20.30;58.00;;;;;;217297;1298;25310;-60
2023/10/11 21:36:27;;;;;;;;;;;20.20;58.10;;;;;;217365;1288;22612;-62
2023/10/11 21:41:30;;;;;;;;;;;20.30;58.00;;;;;;217249;1298;22537;-61
2023/10/11 21:46:33;;;;;;;;;;;20.20;57.90;;;;;;217366;1298;22607;-61
2023/10/11 21:51:36;;;;;;;;;;;20.30;58.00;;;;;;217374;1297;22638;-61
2023/10/11 21:56:39;;;;;;;;;;;20.20;57.90;;;;;;217358;1296;22839;-62
2023/10/11 22:01:45;;;;;;;;;;;20.20;58.10;;;;;;217197;1298;23949;-64
2023/10/11 22:06:47;;;;;;;;;;;20.20;58.10;;;;;;217236;1292;22546;-65
2023/10/11 22:11:52;;;;;;;;;;;20.20;58.10;;;;;;217393;1298;22532;-65
2023/10/11 22:16:54;;;;;;;;;;;20.20;58.50;;;;;;217375;1298;22683;-64
2023/10/11 22:21:58;;;;;;;;;;;20.20;58.10;;;;;;217313;1298;22785;-64
2023/10/11 22:27:05;;;;;;;;;;;20.20;58.10;;;;;;217154;1298;22659;-65
2023/10/11 22:32:11;;;;;;;;;;;20.20;58.20;;;;;;217498;1293;22644;-65
2023/10/11 22:37:16;;;;;;;;;;;20.20;58.20;;;;;;217174;1292;22573;-64
2023/10/11 22:42:33;;;;;;;;;;;20.20;58.50;;;;;;217407;1298;22586;-65
2023/10/11 22:47:35;;;;;;;;;;;20.20;58.10;;;;;;217379;1285;24353;-64
2023/10/11 22:52:38;;;;;;;;;;;20.20;58.20;;;;;;217264;1298;22531;-64
2023/10/11 22:57:43;;;;;;;;;;;20.20;58.20;;;;;;217492;1298;22552;-64
2023/10/11 23:02:51;;;;;;;;;;;20.20;58.30;;;;;;217553;1294;22530;-64
2023/10/11 23:07:55;;;;;;;;;;;20.20;58.20;;;;;;217439;1295;22531;-64
2023/10/11 23:13:00;;;;;;;;;;;20.20;58.70;;;;;;217247;1294;23050;-64
2023/10/11 23:18:12;;;;;;;;;;;20.20;58.30;;;;;;217240;1295;22648;-64
2023/10/11 23:23:21;;;;;;;;;;;20.10;58.20;;;;;;217121;1298;22542;-64
2023/10/11 23:28:24;;;;;;;;;;;20.10;58.30;;;;;;216324;1300;22586;-63
2023/10/11 23:33:33;;;;;;;;;;;20.20;58.30;;;;;;216325;1298;22756;-64
2023/10/11 23:38:47;;;;;;;;;;;20.10;58.20;;;;;;216418;1300;22538;-64
2023/10/11 23:43:59;;;;;;;;;;;20.10;58.30;;;;;;216147;1303;25266;-66
2023/10/11 23:49:08;;;;;;;;;;;20.20;58.40;;;;;;216038;1303;22560;-64
2023/10/11 23:54:11;;;;;;;;;;;20.10;58.60;;;;;;217144;1285;22697;-64
2023/10/11 23:59:16;;;;;;;;;;;20.10;58.30;;;;;;217438;1295;22679;-64
